createdAt,value
2019-04-22T00:03:12.979Z,11.20
2019-04-22T00:07:41.979Z,11.20
2019-04-22T00:11:54.672Z,11.20
2019-04-22T00:15:54.112Z,11.10
2019-04-22T00:20:04.922Z,11.10
2019-04-22T00:25:03.447Z,11.00
2019-04-22T00:29:34.498Z,11.00
2019-04-22T00:33:19.179Z,11.00
2019-04-22T00:37:23.574Z,11.10
2019-04-22T00:41:34.157Z,11.00
2019-04-22T00:45:38.540Z,11.00
2019-04-22T00:53:48.089Z,10.90
2019-04-22T00:57:56.322Z,10.80
2019-04-22T01:02:03.594Z,10.70
2019-04-22T01:06:10.344Z,10.70
2019-04-22T01:16:09.430Z,10.50
2019-04-22T01:20:45.461Z,10.50
2019-04-22T01:24:12.111Z,10.40
2019-04-22T01:28:10.842Z,10.40
2019-04-22T01:32:05.821Z,10.30
2019-04-22T01:36:24.624Z,10.20
2019-04-22T01:40:45.175Z,10.20
2019-04-22T01:44:47.122Z,10.10
2019-04-22T01:48:57.802Z,10.10
2019-04-22T01:53:06.385Z,10.10
2019-04-22T01:57:06.550Z,10.00
2019-04-22T02:01:13.685Z,10.00
2019-04-22T02:05:21.652Z,10.00
2019-04-22T02:09:24.088Z,9.90
2019-04-22T02:13:30.824Z,9.90
2019-04-22T02:17:41.537Z,9.80
2019-04-22T02:21:42.497Z,9.70
2019-04-22T02:25:59.238Z,9.60
2019-04-22T02:29:51.922Z,9.50
2019-04-22T02:34:13.847Z,9.50
2019-04-22T02:38:19.472Z,9.40
2019-04-22T02:42:14.221Z,9.40
2019-04-22T02:46:45.148Z,9.40
2019-04-22T02:50:28.581Z,9.40
2019-04-22T02:54:49.429Z,9.30
2019-04-22T03:15:07.870Z,9.10
2019-04-22T03:19:26.448Z,9.10
2019-04-22T03:23:36.071Z,9.00
2019-04-22T03:27:27.674Z,8.90
2019-04-22T03:36:05.776Z,8.80
2019-04-22T03:47:01.859Z,8.80
2019-04-22T03:51:12.019Z,8.80
2019-04-22T03:59:28.502Z,9.00
2019-04-22T04:03:19.128Z,9.20
2019-04-22T04:11:43.264Z,9.20
2019-04-22T04:15:32.926Z,9.20
2019-04-22T04:28:24.276Z,9.10
2019-04-22T04:32:20.719Z,9.20
2019-04-22T04:44:28.846Z,9.90
2019-04-22T04:48:36.975Z,10.50
2019-04-22T05:09:11.812Z,12.30
2019-04-22T05:17:15.763Z,11.90
2019-04-22T05:29:43.217Z,11.30
2019-04-22T05:33:34.935Z,11.30
2019-04-22T05:37:40.306Z,11.20
2019-04-22T05:41:43.107Z,11.20
2019-04-22T05:45:54.189Z,11.10
2019-04-22T05:54:01.329Z,11.10
2019-04-22T05:58:02.498Z,11.30
2019-04-22T06:02:23.429Z,11.30
2019-04-22T06:06:20.702Z,11.40
2019-04-22T06:10:29.335Z,11.40
2019-04-22T06:14:24.812Z,11.40
2019-04-22T06:18:34.816Z,11.40
2019-04-22T06:35:09.747Z,11.90
2019-04-22T06:39:18.448Z,11.90
2019-04-22T06:43:15.789Z,11.90
2019-04-22T06:47:38.012Z,11.90
2019-04-22T06:51:30.950Z,12.10
2019-04-22T06:55:35.630Z,12.10
2019-04-22T06:59:38.033Z,12.30
2019-04-22T07:03:58.500Z,12.70
2019-04-22T07:07:53.364Z,13.70
2019-04-22T07:12:02.237Z,14.90
2019-04-22T07:16:05.212Z,16.20
2019-04-22T07:20:10.706Z,17.30
2019-04-22T07:24:40.675Z,18.30
2019-04-22T07:28:20.263Z,19.20
2019-04-22T07:32:54.959Z,19.90
2019-04-22T07:40:43.854Z,20.30
2019-04-22T07:44:51.016Z,20.50
2019-04-22T07:49:10.497Z,20.70
2019-04-22T07:52:58.930Z,20.90
2019-04-22T07:57:15.355Z,21.10
2019-04-22T08:01:14.051Z,21.40
2019-04-22T08:05:22.454Z,21.50
2019-04-22T08:09:34.024Z,22.40
2019-04-22T08:21:46.289Z,22.80
2019-04-22T08:25:47.463Z,23.00
2019-04-22T08:34:08.171Z,22.80
2019-04-22T08:38:11.535Z,21.60
2019-04-22T08:42:29.436Z,21.10
2019-04-22T08:46:27.131Z,20.70
2019-04-22T08:50:26.755Z,20.10
2019-04-22T08:54:36.146Z,19.60
2019-04-22T08:58:48.760Z,19.10
2019-04-22T09:02:53.740Z,18.90
2019-04-22T09:07:10.482Z,18.60
2019-04-22T09:11:04.635Z,18.50
2019-04-22T09:15:04.568Z,18.50
2019-04-22T09:19:12.646Z,18.40
2019-04-22T09:23:28.423Z,18.40
2019-04-22T09:31:29.242Z,18.40
2019-04-22T09:35:49.878Z,18.40
2019-04-22T09:39:51.263Z,18.40
2019-04-22T09:43:53.621Z,18.40
2019-04-22T09:48:00.930Z,18.40
2019-04-22T09:52:08.434Z,18.50
2019-04-22T09:56:12.218Z,18.60
2019-04-22T10:00:13.995Z,18.60
2019-04-22T10:04:18.193Z,18.60
2019-04-22T10:08:31.685Z,18.70
2019-04-22T10:12:36.673Z,18.70
2019-04-22T10:16:44.978Z,18.80
2019-04-22T10:20:45.883Z,18.80
2019-04-22T10:24:53.615Z,18.80
2019-04-22T10:29:17.025Z,18.80
2019-04-22T10:33:03.051Z,18.80
2019-04-22T10:36:52.728Z,18.90
2019-04-22T10:40:52.681Z,19.00
2019-04-22T10:44:57.344Z,19.20
2019-04-22T10:49:02.027Z,19.30
2019-04-22T10:53:07.735Z,19.40
2019-04-22T10:57:12.272Z,19.40
2019-04-22T11:01:17.887Z,19.50
2019-04-22T11:05:22.492Z,19.60
2019-04-22T11:09:28.941Z,19.70
2019-04-22T11:13:35.654Z,19.70
2019-04-22T11:17:41.701Z,19.70
2019-04-22T11:21:57.696Z,19.70
2019-04-22T11:25:54.053Z,19.70
2019-04-22T11:29:59.474Z,19.70
2019-04-22T11:34:04.211Z,19.60
2019-04-22T11:38:08.900Z,19.70
2019-04-22T11:42:14.070Z,19.80
2019-04-22T11:46:18.878Z,19.90
2019-04-22T11:50:24.345Z,19.90
2019-04-22T11:54:28.915Z,19.90
2019-04-22T11:58:34.862Z,20.00
2019-04-22T12:02:40.931Z,20.00
2019-04-22T12:06:46.155Z,20.10
2019-04-22T12:10:55.399Z,20.10
2019-04-22T12:14:58.437Z,20.10
2019-04-22T12:19:03.384Z,20.30
2019-04-22T12:23:09.435Z,20.30
2019-04-22T12:27:16.962Z,20.40
2019-04-22T12:31:21.705Z,20.60
2019-04-22T12:35:26.456Z,20.70
2019-04-22T12:39:31.594Z,20.70
2019-04-22T12:43:37.326Z,20.80
2019-04-22T12:47:44.036Z,20.80
2019-04-22T12:51:49.257Z,21.00
2019-04-22T12:55:55.401Z,21.00
2019-04-22T13:00:01.744Z,21.10
2019-04-22T13:04:09.624Z,21.10
2019-04-22T13:08:13.750Z,21.20
2019-04-22T13:12:19.346Z,21.30
2019-04-22T13:16:24.980Z,21.40
2019-04-22T13:20:30.463Z,21.40
2019-04-22T13:24:36.165Z,21.40
2019-04-22T13:28:41.014Z,21.40
2019-04-22T13:32:46.964Z,21.40
2019-04-22T13:36:52.910Z,21.40
2019-04-22T13:41:07.237Z,21.40
2019-04-22T13:45:04.140Z,21.40
2019-04-22T13:49:46.233Z,21.30
2019-04-22T13:57:41.380Z,21.40
2019-04-22T14:01:36.664Z,21.40
2019-04-22T14:05:42.641Z,21.40
2019-04-22T14:09:48.630Z,21.50
2019-04-22T14:13:53.364Z,21.50
2019-04-22T14:17:58.817Z,21.60
2019-04-22T14:22:03.996Z,21.50
2019-04-22T14:26:09.162Z,21.60
2019-04-22T14:30:16.747Z,21.80
2019-04-22T14:34:21.421Z,21.80
2019-04-22T14:38:25.992Z,21.80
2019-04-22T14:42:51.531Z,21.70
2019-04-22T14:47:03.473Z,21.70
2019-04-22T14:51:05.937Z,21.50
2019-04-22T14:55:00.874Z,21.60
2019-04-22T14:58:56.615Z,21.60
2019-04-22T15:03:01.598Z,21.60
2019-04-22T15:07:08.570Z,21.50
2019-04-22T15:11:13.177Z,21.40
2019-04-22T15:15:43.397Z,21.40
2019-04-22T15:19:55.966Z,21.20
2019-04-22T15:24:20.597Z,21.10
2019-04-22T15:28:25.257Z,21.00
2019-04-22T15:32:29.913Z,21.00
2019-04-22T15:36:36.010Z,20.90
2019-04-22T15:40:40.770Z,20.90
2019-04-22T15:44:46.215Z,20.70
2019-04-22T15:48:51.850Z,20.60
2019-04-22T15:52:58.840Z,20.60
2019-04-22T15:57:02.675Z,20.40
2019-04-22T16:01:15.121Z,20.40
2019-04-22T16:05:14.815Z,20.30
2019-04-22T16:09:20.551Z,20.30
2019-04-22T16:13:28.766Z,20.20
2019-04-22T16:17:32.668Z,20.10
2019-04-22T16:21:42.422Z,20.00
2019-04-22T16:26:15.447Z,20.00
2019-04-22T16:30:21.522Z,19.90
2019-04-22T16:34:27.223Z,19.80
2019-04-22T16:38:37.466Z,19.70
2019-04-22T16:42:49.947Z,19.70
2019-04-22T16:46:49.982Z,19.60
2019-04-22T16:50:55.008Z,19.60
2019-04-22T16:55:01.078Z,19.60
2019-04-22T16:59:06.687Z,19.60
2019-04-22T17:03:22.816Z,19.50
2019-04-22T17:07:27.452Z,19.40
2019-04-22T17:11:32.024Z,19.30
2019-04-22T17:15:37.567Z,19.10
2019-04-22T17:19:42.242Z,19.00
2019-04-22T17:23:47.608Z,18.90
2019-04-22T17:27:52.392Z,18.70
2019-04-22T17:32:03.699Z,18.60
2019-04-22T17:36:03.393Z,18.50
2019-04-22T17:40:30.326Z,18.40
2019-04-22T17:44:58.844Z,18.30
2019-04-22T17:49:13.941Z,18.20
2019-04-22T17:53:23.007Z,18.10
2019-04-22T17:57:21.709Z,18.00
2019-04-22T18:01:29.748Z,17.90
2019-04-22T18:05:22.029Z,17.80
2019-04-22T18:10:14.074Z,17.70
2019-04-22T18:13:51.542Z,17.60
2019-04-22T18:18:03.662Z,17.50
2019-04-22T18:21:57.303Z,17.40
2019-04-22T18:26:08.153Z,17.30
2019-04-22T18:30:11.397Z,17.30
2019-04-22T18:34:19.124Z,17.20
2019-04-22T18:38:44.407Z,17.10
2019-04-22T18:42:26.865Z,17.00
2019-04-22T18:46:37.130Z,16.90
2019-04-22T18:50:56.243Z,16.80
2019-04-22T18:55:12.906Z,16.70
2019-04-22T18:59:10.449Z,16.60
2019-04-22T19:03:14.183Z,16.50
2019-04-22T19:07:42.031Z,16.40
2019-04-22T19:11:46.218Z,16.30
2019-04-22T19:15:53.893Z,16.20
2019-04-22T19:20:02.715Z,16.10
2019-04-22T19:24:01.510Z,16.00
2019-04-22T19:28:18.961Z,16.00
2019-04-22T19:32:13.006Z,15.80
2019-04-22T19:36:22.726Z,15.80
2019-04-22T19:40:42.033Z,15.70
2019-04-22T19:44:40.842Z,15.60
2019-04-22T19:48:44.962Z,15.60
2019-04-22T19:52:53.120Z,15.50
2019-04-22T19:56:45.620Z,15.40
2019-04-22T20:01:15.075Z,15.30
2019-04-22T20:05:50.939Z,15.30
2019-04-22T20:09:55.512Z,15.20
2019-04-22T20:14:03.215Z,15.10
2019-04-22T20:18:22.608Z,15.10
2019-04-22T20:22:14.322Z,14.90
2019-04-22T20:26:12.479Z,14.90
2019-04-22T20:30:28.247Z,14.80
2019-04-22T20:34:32.164Z,14.60
2019-04-22T20:38:35.435Z,14.60
2019-04-22T20:42:48.375Z,14.60
2019-04-22T20:46:49.021Z,14.50
2019-04-22T20:50:59.292Z,14.40
2019-04-22T20:54:58.860Z,14.30
2019-04-22T20:59:08.606Z,14.20
2019-04-22T21:03:06.246Z,14.10
2019-04-22T21:07:15.078Z,14.10
2019-04-22T21:11:24.837Z,14.00
2019-04-22T21:15:36.901Z,13.90
2019-04-22T21:19:46.490Z,13.90
2019-04-22T21:23:39.438Z,13.80
2019-04-22T21:27:58.229Z,13.70
2019-04-22T21:32:01.057Z,13.60
2019-04-22T21:36:14.966Z,13.50
2019-04-22T21:40:05.479Z,13.50
2019-04-22T21:44:14.328Z,13.40
2019-04-22T21:48:31.408Z,13.30
2019-04-22T21:52:27.981Z,13.30
2019-04-22T21:57:05.807Z,13.20
2019-04-22T22:01:21.895Z,13.20
2019-04-22T22:05:12.520Z,13.10
2019-04-22T22:09:25.518Z,13.10
2019-04-22T22:13:31.942Z,13.00
2019-04-22T22:17:31.006Z,12.90
2019-04-22T22:21:47.840Z,12.90
2019-04-22T22:25:43.689Z,12.80
2019-04-22T22:34:04.079Z,12.80
2019-04-22T22:38:05.274Z,12.70
2019-04-22T22:41:52.029Z,12.60
2019-04-22T22:46:11.934Z,12.60
2019-04-22T22:50:20.127Z,12.50
2019-04-22T22:54:31.759Z,12.50
2019-04-22T22:58:42.625Z,12.40
2019-04-22T23:02:48.596Z,12.40
2019-04-22T23:06:53.243Z,12.30
2019-04-22T23:11:03.555Z,12.30
2019-04-22T23:14:58.988Z,12.30
2019-04-22T23:19:01.993Z,12.20
2019-04-22T23:23:25.799Z,12.10
2019-04-22T23:27:40.419Z,12.10
2019-04-22T23:31:45.429Z,12.00
2019-04-22T23:36:00.312Z,12.00
2019-04-22T23:40:24.385Z,12.00
2019-04-22T23:44:19.548Z,12.00
2019-04-22T23:48:20.472Z,12.00
2019-04-22T23:52:35.697Z,12.00
2019-04-22T23:56:33.592Z,11.90
